sensor_id;sensor_type;location;lat;lon;timestamp;P1;durP1;ratioP1;P2;durP2;ratioP2
15905;SDS011;8051;50.820;4.884;2024-02-28T00:00:14;75.37;;;46.70;;
15905;SDS011;8051;50.820;4.884;2024-02-28T00:02:42;63.40;;;44.23;;
15905;SDS011;8051;50.820;4.884;2024-02-28T00:05:10;62.93;;;44.67;;
15905;SDS011;8051;50.820;4.884;2024-02-28T00:07:37;68.70;;;44.80;;
15905;SDS011;8051;50.820;4.884;2024-02-28T00:10:05;83.83;;;47.53;;
15905;SDS011;8051;50.820;4.884;2024-02-28T00:12:33;64.43;;;44.33;;
15905;SDS011;8051;50.820;4.884;2024-02-28T00:15:01;59.77;;;42.53;;
15905;SDS011;8051;50.820;4.884;2024-02-28T00:17:30;75.73;;;44.90;;
15905;SDS011;8051;50.820;4.884;2024-02-28T00:19:58;60.77;;;43.73;;
15905;SDS011;8051;50.820;4.884;2024-02-28T00:22:25;64.03;;;42.20;;
15905;SDS011;8051;50.820;4.884;2024-02-28T00:24:53;57.77;;;41.07;;
15905;SDS011;8051;50.820;4.884;2024-02-28T00:27:20;63.90;;;44.17;;
15905;SDS011;8051;50.820;4.884;2024-02-28T00:29:48;59.37;;;41.50;;
15905;SDS011;8051;50.820;4.884;2024-02-28T00:32:15;56.47;;;41.00;;
15905;SDS011;8051;50.820;4.884;2024-02-28T00:34:44;60.63;;;42.30;;
15905;SDS011;8051;50.820;4.884;2024-02-28T00:37:12;61.73;;;42.97;;
15905;SDS011;8051;50.820;4.884;2024-02-28T00:39:39;58.20;;;40.10;;
15905;SDS011;8051;50.820;4.884;2024-02-28T00:42:07;62.17;;;42.00;;
15905;SDS011;8051;50.820;4.884;2024-02-28T00:44:35;71.70;;;42.00;;
15905;SDS011;8051;50.820;4.884;2024-02-28T00:47:02;60.47;;;41.90;;
15905;SDS011;8051;50.820;4.884;2024-02-28T00:49:30;61.70;;;41.30;;
15905;SDS011;8051;50.820;4.884;2024-02-28T00:52:00;60.60;;;41.00;;
15905;SDS011;8051;50.820;4.884;2024-02-28T00:54:27;56.40;;;38.50;;
15905;SDS011;8051;50.820;4.884;2024-02-28T00:56:55;68.73;;;42.47;;
15905;SDS011;8051;50.820;4.884;2024-02-28T00:59:22;53.97;;;37.80;;
15905;SDS011;8051;50.820;4.884;2024-02-28T01:01:50;52.53;;;37.23;;
15905;SDS011;8051;50.820;4.884;2024-02-28T01:04:17;53.67;;;39.87;;
15905;SDS011;8051;50.820;4.884;2024-02-28T01:06:45;55.67;;;39.07;;
15905;SDS011;8051;50.820;4.884;2024-02-28T01:09:13;62.97;;;39.77;;
15905;SDS011;8051;50.820;4.884;2024-02-28T01:11:40;56.10;;;39.13;;
15905;SDS011;8051;50.820;4.884;2024-02-28T01:14:08;66.13;;;41.33;;
15905;SDS011;8051;50.820;4.884;2024-02-28T01:16:35;66.30;;;40.57;;
15905;SDS011;8051;50.820;4.884;2024-02-28T01:19:03;54.57;;;40.70;;
15905;SDS011;8051;50.820;4.884;2024-02-28T01:21:30;62.77;;;43.47;;
15905;SDS011;8051;50.820;4.884;2024-02-28T01:23:57;64.03;;;39.67;;
15905;SDS011;8051;50.820;4.884;2024-02-28T01:26:26;74.70;;;44.57;;
15905;SDS011;8051;50.820;4.884;2024-02-28T01:28:54;61.60;;;43.17;;
15905;SDS011;8051;50.820;4.884;2024-02-28T01:31:22;65.93;;;43.27;;
15905;SDS011;8051;50.820;4.884;2024-02-28T01:33:49;64.27;;;45.27;;
15905;SDS011;8051;50.820;4.884;2024-02-28T01:36:17;79.50;;;49.83;;
15905;SDS011;8051;50.820;4.884;2024-02-28T01:38:44;76.97;;;49.33;;
15905;SDS011;8051;50.820;4.884;2024-02-28T01:41:14;80.60;;;50.50;;
15905;SDS011;8051;50.820;4.884;2024-02-28T01:43:43;79.30;;;52.93;;
15905;SDS011;8051;50.820;4.884;2024-02-28T01:46:16;82.73;;;50.90;;
15905;SDS011;8051;50.820;4.884;2024-02-28T01:48:48;80.87;;;50.47;;
15905;SDS011;8051;50.820;4.884;2024-02-28T01:51:16;67.30;;;47.97;;
15905;SDS011;8051;50.820;4.884;2024-02-28T01:53:44;65.93;;;45.90;;
15905;SDS011;8051;50.820;4.884;2024-02-28T01:56:12;72.13;;;49.93;;
15905;SDS011;8051;50.820;4.884;2024-02-28T01:58:41;70.33;;;50.97;;
15905;SDS011;8051;50.820;4.884;2024-02-28T02:01:13;70.63;;;47.20;;
15905;SDS011;8051;50.820;4.884;2024-02-28T02:03:41;69.33;;;48.03;;
15905;SDS011;8051;50.820;4.884;2024-02-28T02:06:10;73.50;;;49.10;;
15905;SDS011;8051;50.820;4.884;2024-02-28T02:08:37;76.87;;;52.67;;
15905;SDS011;8051;50.820;4.884;2024-02-28T02:11:05;73.47;;;48.73;;
15905;SDS011;8051;50.820;4.884;2024-02-28T02:13:33;81.60;;;48.80;;
15905;SDS011;8051;50.820;4.884;2024-02-28T02:16:02;88.07;;;51.67;;
15905;SDS011;8051;50.820;4.884;2024-02-28T02:18:30;85.00;;;49.80;;
15905;SDS011;8051;50.820;4.884;2024-02-28T02:20:59;94.03;;;54.30;;
15905;SDS011;8051;50.820;4.884;2024-02-28T02:23:32;82.77;;;49.33;;
15905;SDS011;8051;50.820;4.884;2024-02-28T02:26:00;88.27;;;50.10;;
15905;SDS011;8051;50.820;4.884;2024-02-28T02:28:28;92.83;;;51.93;;
15905;SDS011;8051;50.820;4.884;2024-02-28T02:30:55;89.93;;;49.43;;
15905;SDS011;8051;50.820;4.884;2024-02-28T02:33:23;93.50;;;50.80;;
15905;SDS011;8051;50.820;4.884;2024-02-28T02:35:51;84.70;;;51.30;;
15905;SDS011;8051;50.820;4.884;2024-02-28T02:38:18;77.77;;;49.33;;
15905;SDS011;8051;50.820;4.884;2024-02-28T02:40:49;79.27;;;50.30;;
15905;SDS011;8051;50.820;4.884;2024-02-28T02:43:17;76.33;;;50.93;;
15905;SDS011;8051;50.820;4.884;2024-02-28T02:45:44;83.97;;;50.53;;
15905;SDS011;8051;50.820;4.884;2024-02-28T02:48:12;77.93;;;48.77;;
15905;SDS011;8051;50.820;4.884;2024-02-28T02:50:39;82.10;;;50.90;;
15905;SDS011;8051;50.820;4.884;2024-02-28T02:53:10;84.03;;;53.10;;
15905;SDS011;8051;50.820;4.884;2024-02-28T02:55:37;100.10;;;54.10;;
15905;SDS011;8051;50.820;4.884;2024-02-28T02:58:06;83.27;;;49.27;;
15905;SDS011;8051;50.820;4.884;2024-02-28T03:00:33;83.43;;;53.50;;
15905;SDS011;8051;50.820;4.884;2024-02-28T03:03:01;89.47;;;56.93;;
15905;SDS011;8051;50.820;4.884;2024-02-28T03:05:28;89.47;;;53.67;;
15905;SDS011;8051;50.820;4.884;2024-02-28T03:07:56;82.73;;;50.57;;
15905;SDS011;8051;50.820;4.884;2024-02-28T03:10:23;88.40;;;54.87;;
15905;SDS011;8051;50.820;4.884;2024-02-28T03:12:51;87.87;;;53.77;;
15905;SDS011;8051;50.820;4.884;2024-02-28T03:15:20;85.53;;;51.00;;
15905;SDS011;8051;50.820;4.884;2024-02-28T03:17:47;83.07;;;50.17;;
15905;SDS011;8051;50.820;4.884;2024-02-28T03:20:15;77.33;;;49.90;;
15905;SDS011;8051;50.820;4.884;2024-02-28T03:22:42;87.70;;;52.90;;
15905;SDS011;8051;50.820;4.884;2024-02-28T03:25:10;86.53;;;53.60;;
15905;SDS011;8051;50.820;4.884;2024-02-28T03:27:37;84.87;;;51.37;;
15905;SDS011;8051;50.820;4.884;2024-02-28T03:30:05;101.00;;;55.97;;
15905;SDS011;8051;50.820;4.884;2024-02-28T03:32:35;95.33;;;54.00;;
15905;SDS011;8051;50.820;4.884;2024-02-28T03:35:02;96.00;;;55.93;;
15905;SDS011;8051;50.820;4.884;2024-02-28T03:37:33;88.80;;;53.50;;
15905;SDS011;8051;50.820;4.884;2024-02-28T03:40:01;89.10;;;54.77;;
15905;SDS011;8051;50.820;4.884;2024-02-28T03:42:30;80.60;;;51.33;;
15905;SDS011;8051;50.820;4.884;2024-02-28T03:44:57;94.23;;;53.83;;
15905;SDS011;8051;50.820;4.884;2024-02-28T03:47:24;84.37;;;53.23;;
15905;SDS011;8051;50.820;4.884;2024-02-28T03:49:54;88.97;;;54.43;;
15905;SDS011;8051;50.820;4.884;2024-02-28T03:52:22;100.67;;;52.93;;
15905;SDS011;8051;50.820;4.884;2024-02-28T03:54:50;87.83;;;53.57;;
15905;SDS011;8051;50.820;4.884;2024-02-28T03:57:17;98.77;;;55.13;;
15905;SDS011;8051;50.820;4.884;2024-02-28T03:59:45;79.33;;;50.67;;
15905;SDS011;8051;50.820;4.884;2024-02-28T04:02:12;81.17;;;51.67;;
15905;SDS011;8051;50.820;4.884;2024-02-28T04:04:40;82.30;;;51.50;;
15905;SDS011;8051;50.820;4.884;2024-02-28T04:07:09;92.67;;;53.67;;
15905;SDS011;8051;50.820;4.884;2024-02-28T04:09:37;93.30;;;53.30;;
15905;SDS011;8051;50.820;4.884;2024-02-28T04:12:04;86.23;;;52.53;;
15905;SDS011;8051;50.820;4.884;2024-02-28T04:14:32;87.70;;;53.30;;
15905;SDS011;8051;50.820;4.884;2024-02-28T04:16:59;82.27;;;53.67;;
15905;SDS011;8051;50.820;4.884;2024-02-28T04:19:27;79.77;;;54.27;;
15905;SDS011;8051;50.820;4.884;2024-02-28T04:21:54;91.27;;;55.87;;
15905;SDS011;8051;50.820;4.884;2024-02-28T04:24:23;93.97;;;55.07;;
15905;SDS011;8051;50.820;4.884;2024-02-28T04:26:50;91.93;;;54.20;;
15905;SDS011;8051;50.820;4.884;2024-02-28T04:29:18;84.53;;;51.73;;
15905;SDS011;8051;50.820;4.884;2024-02-28T04:31:46;94.07;;;53.77;;
15905;SDS011;8051;50.820;4.884;2024-02-28T04:34:13;101.80;;;58.63;;
15905;SDS011;8051;50.820;4.884;2024-02-28T04:36:41;82.00;;;52.00;;
15905;SDS011;8051;50.820;4.884;2024-02-28T04:39:08;92.80;;;50.60;;
15905;SDS011;8051;50.820;4.884;2024-02-28T04:41:37;104.10;;;55.37;;
15905;SDS011;8051;50.820;4.884;2024-02-28T04:44:05;87.13;;;51.60;;
15905;SDS011;8051;50.820;4.884;2024-02-28T04:46:33;74.90;;;51.03;;
15905;SDS011;8051;50.820;4.884;2024-02-28T04:49:01;84.17;;;52.80;;
15905;SDS011;8051;50.820;4.884;2024-02-28T04:51:28;86.43;;;54.03;;
15905;SDS011;8051;50.820;4.884;2024-02-28T04:53:56;75.37;;;48.37;;
15905;SDS011;8051;50.820;4.884;2024-02-28T04:56:23;90.27;;;49.60;;
15905;SDS011;8051;50.820;4.884;2024-02-28T04:58:52;86.70;;;52.77;;
15905;SDS011;8051;50.820;4.884;2024-02-28T05:01:20;101.87;;;56.37;;
15905;SDS011;8051;50.820;4.884;2024-02-28T05:03:48;93.83;;;54.50;;
15905;SDS011;8051;50.820;4.884;2024-02-28T05:06:15;88.00;;;53.40;;
15905;SDS011;8051;50.820;4.884;2024-02-28T05:08:43;98.27;;;55.83;;
15905;SDS011;8051;50.820;4.884;2024-02-28T05:11:11;86.23;;;54.43;;
15905;SDS011;8051;50.820;4.884;2024-02-28T05:13:38;82.37;;;53.73;;
15905;SDS011;8051;50.820;4.884;2024-02-28T05:16:13;91.00;;;56.03;;
15905;SDS011;8051;50.820;4.884;2024-02-28T05:18:40;93.13;;;54.33;;
15905;SDS011;8051;50.820;4.884;2024-02-28T05:21:08;77.67;;;51.07;;
15905;SDS011;8051;50.820;4.884;2024-02-28T05:23:35;83.77;;;50.97;;
15905;SDS011;8051;50.820;4.884;2024-02-28T05:26:03;82.40;;;50.40;;
15905;SDS011;8051;50.820;4.884;2024-02-28T05:28:32;78.63;;;51.07;;
15905;SDS011;8051;50.820;4.884;2024-02-28T05:31:01;78.03;;;49.83;;
15905;SDS011;8051;50.820;4.884;2024-02-28T05:33:38;77.37;;;50.33;;
15905;SDS011;8051;50.820;4.884;2024-02-28T05:36:07;73.53;;;50.30;;
15905;SDS011;8051;50.820;4.884;2024-02-28T05:38:35;78.23;;;49.93;;
15905;SDS011;8051;50.820;4.884;2024-02-28T05:41:03;93.83;;;50.93;;
15905;SDS011;8051;50.820;4.884;2024-02-28T05:43:30;74.93;;;48.40;;
15905;SDS011;8051;50.820;4.884;2024-02-28T05:45:57;90.17;;;50.93;;
15905;SDS011;8051;50.820;4.884;2024-02-28T05:48:25;79.90;;;48.97;;
15905;SDS011;8051;50.820;4.884;2024-02-28T05:50:54;77.70;;;47.53;;
15905;SDS011;8051;50.820;4.884;2024-02-28T05:53:21;97.33;;;51.17;;
15905;SDS011;8051;50.820;4.884;2024-02-28T05:55:52;74.67;;;49.23;;
15905;SDS011;8051;50.820;4.884;2024-02-28T05:58:22;81.47;;;49.77;;
15905;SDS011;8051;50.820;4.884;2024-02-28T06:00:50;78.07;;;50.03;;
15905;SDS011;8051;50.820;4.884;2024-02-28T06:03:18;82.70;;;49.20;;
15905;SDS011;8051;50.820;4.884;2024-02-28T06:05:45;68.97;;;46.30;;
15905;SDS011;8051;50.820;4.884;2024-02-28T06:08:15;92.53;;;51.87;;
15905;SDS011;8051;50.820;4.884;2024-02-28T06:10:42;84.63;;;49.27;;
15905;SDS011;8051;50.820;4.884;2024-02-28T06:13:12;89.07;;;50.43;;
15905;SDS011;8051;50.820;4.884;2024-02-28T06:15:39;73.90;;;48.37;;
15905;SDS011;8051;50.820;4.884;2024-02-28T06:18:07;69.50;;;47.23;;
15905;SDS011;8051;50.820;4.884;2024-02-28T06:20:35;74.83;;;47.67;;
15905;SDS011;8051;50.820;4.884;2024-02-28T06:23:02;79.50;;;51.70;;
15905;SDS011;8051;50.820;4.884;2024-02-28T06:25:32;92.10;;;52.57;;
15905;SDS011;8051;50.820;4.884;2024-02-28T06:27:59;95.37;;;49.83;;
15905;SDS011;8051;50.820;4.884;2024-02-28T06:30:27;77.57;;;50.00;;
15905;SDS011;8051;50.820;4.884;2024-02-28T06:32:55;70.77;;;48.73;;
15905;SDS011;8051;50.820;4.884;2024-02-28T06:35:25;77.43;;;49.20;;
15905;SDS011;8051;50.820;4.884;2024-02-28T06:37:52;69.07;;;47.43;;
15905;SDS011;8051;50.820;4.884;2024-02-28T06:40:20;77.03;;;47.37;;
15905;SDS011;8051;50.820;4.884;2024-02-28T06:42:49;72.60;;;49.50;;
15905;SDS011;8051;50.820;4.884;2024-02-28T06:45:16;79.97;;;49.93;;
15905;SDS011;8051;50.820;4.884;2024-02-28T06:47:44;72.17;;;48.70;;
15905;SDS011;8051;50.820;4.884;2024-02-28T06:50:11;72.93;;;46.83;;
15905;SDS011;8051;50.820;4.884;2024-02-28T06:52:39;74.87;;;49.60;;
15905;SDS011;8051;50.820;4.884;2024-02-28T06:55:07;79.27;;;47.57;;
15905;SDS011;8051;50.820;4.884;2024-02-28T06:57:36;73.87;;;48.97;;
15905;SDS011;8051;50.820;4.884;2024-02-28T07:00:06;76.03;;;46.70;;
15905;SDS011;8051;50.820;4.884;2024-02-28T07:02:34;72.07;;;47.10;;
15905;SDS011;8051;50.820;4.884;2024-02-28T07:05:02;77.43;;;47.80;;
15905;SDS011;8051;50.820;4.884;2024-02-28T07:07:31;83.37;;;46.83;;
15905;SDS011;8051;50.820;4.884;2024-02-28T07:09:59;84.60;;;48.60;;
15905;SDS011;8051;50.820;4.884;2024-02-28T07:12:26;73.03;;;46.67;;
15905;SDS011;8051;50.820;4.884;2024-02-28T07:14:54;96.20;;;49.70;;
15905;SDS011;8051;50.820;4.884;2024-02-28T07:17:23;78.67;;;49.67;;
15905;SDS011;8051;50.820;4.884;2024-02-28T07:19:50;73.60;;;47.33;;
15905;SDS011;8051;50.820;4.884;2024-02-28T07:22:18;89.27;;;49.80;;
15905;SDS011;8051;50.820;4.884;2024-02-28T07:24:46;76.27;;;46.87;;
15905;SDS011;8051;50.820;4.884;2024-02-28T07:27:13;83.57;;;45.90;;
15905;SDS011;8051;50.820;4.884;2024-02-28T07:29:41;71.23;;;43.50;;
15905;SDS011;8051;50.820;4.884;2024-02-28T07:32:09;84.00;;;43.37;;
15905;SDS011;8051;50.820;4.884;2024-02-28T07:34:38;66.37;;;42.90;;
15905;SDS011;8051;50.820;4.884;2024-02-28T07:37:06;84.57;;;46.97;;
15905;SDS011;8051;50.820;4.884;2024-02-28T07:39:33;89.53;;;45.47;;
15905;SDS011;8051;50.820;4.884;2024-02-28T07:42:01;70.60;;;42.77;;
15905;SDS011;8051;50.820;4.884;2024-02-28T07:44:28;78.87;;;46.60;;
15905;SDS011;8051;50.820;4.884;2024-02-28T07:46:57;79.83;;;44.00;;
15905;SDS011;8051;50.820;4.884;2024-02-28T07:49:24;76.90;;;44.60;;
15905;SDS011;8051;50.820;4.884;2024-02-28T07:51:53;75.23;;;45.37;;
15905;SDS011;8051;50.820;4.884;2024-02-28T07:54:21;80.50;;;46.77;;
15905;SDS011;8051;50.820;4.884;2024-02-28T07:56:49;76.37;;;44.97;;
15905;SDS011;8051;50.820;4.884;2024-02-28T07:59:16;87.63;;;45.10;;
15905;SDS011;8051;50.820;4.884;2024-02-28T08:01:45;83.37;;;45.63;;
15905;SDS011;8051;50.820;4.884;2024-02-28T08:04:12;79.37;;;41.47;;
15905;SDS011;8051;50.820;4.884;2024-02-28T08:06:40;84.20;;;43.83;;
15905;SDS011;8051;50.820;4.884;2024-02-28T08:09:09;71.10;;;40.77;;
15905;SDS011;8051;50.820;4.884;2024-02-28T08:11:37;76.77;;;42.07;;
15905;SDS011;8051;50.820;4.884;2024-02-28T08:14:05;66.63;;;40.13;;
15905;SDS011;8051;50.820;4.884;2024-02-28T08:16:32;80.67;;;40.23;;
15905;SDS011;8051;50.820;4.884;2024-02-28T08:18:59;77.50;;;43.80;;
15905;SDS011;8051;50.820;4.884;2024-02-28T08:21:27;62.33;;;39.93;;
15905;SDS011;8051;50.820;4.884;2024-02-28T08:23:54;71.40;;;41.77;;
15905;SDS011;8051;50.820;4.884;2024-02-28T08:26:24;67.60;;;39.10;;
15905;SDS011;8051;50.820;4.884;2024-02-28T08:28:52;79.80;;;42.93;;
15905;SDS011;8051;50.820;4.884;2024-02-28T08:31:19;67.30;;;41.60;;
15905;SDS011;8051;50.820;4.884;2024-02-28T08:33:47;70.90;;;39.60;;
15905;SDS011;8051;50.820;4.884;2024-02-28T08:36:14;69.87;;;42.23;;
15905;SDS011;8051;50.820;4.884;2024-02-28T08:38:42;68.13;;;39.90;;
15905;SDS011;8051;50.820;4.884;2024-02-28T08:41:09;72.13;;;38.97;;
15905;SDS011;8051;50.820;4.884;2024-02-28T08:43:39;64.83;;;40.37;;
15905;SDS011;8051;50.820;4.884;2024-02-28T08:46:07;64.37;;;39.47;;
15905;SDS011;8051;50.820;4.884;2024-02-28T08:48:34;63.07;;;39.13;;
15905;SDS011;8051;50.820;4.884;2024-02-28T08:51:03;62.60;;;38.47;;
15905;SDS011;8051;50.820;4.884;2024-02-28T08:53:30;58.43;;;37.93;;
15905;SDS011;8051;50.820;4.884;2024-02-28T08:55:58;63.73;;;36.60;;
15905;SDS011;8051;50.820;4.884;2024-02-28T08:58:26;58.57;;;38.47;;
15905;SDS011;8051;50.820;4.884;2024-02-28T09:00:55;59.00;;;35.67;;
15905;SDS011;8051;50.820;4.884;2024-02-28T09:03:22;47.03;;;31.40;;
15905;SDS011;8051;50.820;4.884;2024-02-28T09:05:49;52.93;;;32.97;;
15905;SDS011;8051;50.820;4.884;2024-02-28T09:08:17;55.90;;;31.60;;
15905;SDS011;8051;50.820;4.884;2024-02-28T09:10:45;54.10;;;35.73;;
15905;SDS011;8051;50.820;4.884;2024-02-28T09:13:12;54.70;;;34.93;;
15905;SDS011;8051;50.820;4.884;2024-02-28T09:15:40;49.67;;;32.40;;
15905;SDS011;8051;50.820;4.884;2024-02-28T09:18:09;50.87;;;31.90;;
15905;SDS011;8051;50.820;4.884;2024-02-28T09:20:36;52.40;;;32.83;;
15905;SDS011;8051;50.820;4.884;2024-02-28T09:23:03;42.60;;;29.50;;
15905;SDS011;8051;50.820;4.884;2024-02-28T09:25:32;44.83;;;32.23;;
15905;SDS011;8051;50.820;4.884;2024-02-28T09:28:00;43.80;;;31.57;;
15905;SDS011;8051;50.820;4.884;2024-02-28T09:30:28;36.37;;;28.67;;
15905;SDS011;8051;50.820;4.884;2024-02-28T09:32:55;44.27;;;28.07;;
15905;SDS011;8051;50.820;4.884;2024-02-28T09:35:25;39.73;;;29.10;;
15905;SDS011;8051;50.820;4.884;2024-02-28T09:37:52;34.30;;;28.63;;
15905;SDS011;8051;50.820;4.884;2024-02-28T09:40:20;33.57;;;28.60;;
15905;SDS011;8051;50.820;4.884;2024-02-28T09:42:48;33.57;;;29.23;;
15905;SDS011;8051;50.820;4.884;2024-02-28T09:45:19;33.93;;;30.27;;
15905;SDS011;8051;50.820;4.884;2024-02-28T09:47:48;34.13;;;30.63;;
15905;SDS011;8051;50.820;4.884;2024-02-28T09:50:16;33.37;;;29.93;;
15905;SDS011;8051;50.820;4.884;2024-02-28T09:52:46;36.80;;;33.10;;
15905;SDS011;8051;50.820;4.884;2024-02-28T09:55:14;36.50;;;33.03;;
15905;SDS011;8051;50.820;4.884;2024-02-28T09:57:43;36.57;;;33.07;;
15905;SDS011;8051;50.820;4.884;2024-02-28T10:00:14;38.23;;;34.43;;
15905;SDS011;8051;50.820;4.884;2024-02-28T10:02:45;37.23;;;33.53;;
15905;SDS011;8051;50.820;4.884;2024-02-28T10:05:15;34.90;;;31.40;;
15905;SDS011;8051;50.820;4.884;2024-02-28T10:07:44;35.67;;;32.10;;
15905;SDS011;8051;50.820;4.884;2024-02-28T10:10:13;36.37;;;32.73;;
15905;SDS011;8051;50.820;4.884;2024-02-28T10:12:42;37.00;;;33.50;;
15905;SDS011;8051;50.820;4.884;2024-02-28T10:15:10;36.13;;;32.40;;
15905;SDS011;8051;50.820;4.884;2024-02-28T10:17:37;34.07;;;30.97;;
15905;SDS011;8051;50.820;4.884;2024-02-28T10:20:05;35.83;;;32.03;;
15905;SDS011;8051;50.820;4.884;2024-02-28T10:22:34;34.47;;;31.27;;
15905;SDS011;8051;50.820;4.884;2024-02-28T10:25:04;36.30;;;32.80;;
15905;SDS011;8051;50.820;4.884;2024-02-28T10:27:32;37.37;;;33.40;;
15905;SDS011;8051;50.820;4.884;2024-02-28T10:30:00;35.30;;;31.70;;
15905;SDS011;8051;50.820;4.884;2024-02-28T10:32:30;34.97;;;31.87;;
15905;SDS011;8051;50.820;4.884;2024-02-28T10:34:59;35.97;;;32.77;;
15905;SDS011;8051;50.820;4.884;2024-02-28T10:37:26;36.03;;;32.47;;
15905;SDS011;8051;50.820;4.884;2024-02-28T10:39:56;35.33;;;32.30;;
15905;SDS011;8051;50.820;4.884;2024-02-28T10:42:26;38.00;;;34.37;;
15905;SDS011;8051;50.820;4.884;2024-02-28T10:44:57;37.53;;;33.90;;
15905;SDS011;8051;50.820;4.884;2024-02-28T10:47:25;38.07;;;34.17;;
15905;SDS011;8051;50.820;4.884;2024-02-28T10:49:54;37.70;;;33.80;;
15905;SDS011;8051;50.820;4.884;2024-02-28T10:52:22;36.63;;;33.00;;
15905;SDS011;8051;50.820;4.884;2024-02-28T10:54:53;35.33;;;31.60;;
15905;SDS011;8051;50.820;4.884;2024-02-28T10:57:24;35.23;;;32.13;;
15905;SDS011;8051;50.820;4.884;2024-02-28T10:59:53;33.87;;;30.87;;
15905;SDS011;8051;50.820;4.884;2024-02-28T11:02:22;35.00;;;32.00;;
15905;SDS011;8051;50.820;4.884;2024-02-28T11:04:51;36.57;;;33.57;;
15905;SDS011;8051;50.820;4.884;2024-02-28T11:07:19;37.50;;;34.20;;
15905;SDS011;8051;50.820;4.884;2024-02-28T11:09:47;36.90;;;33.37;;
15905;SDS011;8051;50.820;4.884;2024-02-28T11:12:26;39.80;;;35.97;;
15905;SDS011;8051;50.820;4.884;2024-02-28T11:15:00;37.57;;;34.07;;
15905;SDS011;8051;50.820;4.884;2024-02-28T11:17:29;36.10;;;33.07;;
15905;SDS011;8051;50.820;4.884;2024-02-28T11:19:57;36.57;;;33.37;;
15905;SDS011;8051;50.820;4.884;2024-02-28T11:22:27;38.60;;;34.83;;
15905;SDS011;8051;50.820;4.884;2024-02-28T11:24:55;37.83;;;34.23;;
15905;SDS011;8051;50.820;4.884;2024-02-28T11:27:22;36.77;;;33.47;;
15905;SDS011;8051;50.820;4.884;2024-02-28T11:29:50;38.47;;;34.67;;
15905;SDS011;8051;50.820;4.884;2024-02-28T11:32:19;37.63;;;34.17;;
15905;SDS011;8051;50.820;4.884;2024-02-28T11:34:47;39.97;;;36.13;;
15905;SDS011;8051;50.820;4.884;2024-02-28T11:37:16;39.03;;;35.33;;
15905;SDS011;8051;50.820;4.884;2024-02-28T11:39:46;37.60;;;34.50;;
15905;SDS011;8051;50.820;4.884;2024-02-28T11:42:15;40.37;;;36.47;;
15905;SDS011;8051;50.820;4.884;2024-02-28T11:44:43;38.63;;;35.30;;
15905;SDS011;8051;50.820;4.884;2024-02-28T11:47:20;36.63;;;33.30;;
15905;SDS011;8051;50.820;4.884;2024-02-28T11:49:48;37.67;;;34.13;;
15905;SDS011;8051;50.820;4.884;2024-02-28T11:52:16;40.10;;;36.17;;
15905;SDS011;8051;50.820;4.884;2024-02-28T11:54:44;37.97;;;34.63;;
15905;SDS011;8051;50.820;4.884;2024-02-28T11:57:12;36.27;;;33.17;;
15905;SDS011;8051;50.820;4.884;2024-02-28T11:59:43;36.80;;;33.90;;
15905;SDS011;8051;50.820;4.884;2024-02-28T12:02:11;36.27;;;33.13;;
15905;SDS011;8051;50.820;4.884;2024-02-28T12:04:41;35.27;;;32.17;;
15905;SDS011;8051;50.820;4.884;2024-02-28T12:07:09;35.17;;;32.07;;
15905;SDS011;8051;50.820;4.884;2024-02-28T12:09:37;36.73;;;33.30;;
15905;SDS011;8051;50.820;4.884;2024-02-28T12:12:06;34.77;;;31.77;;
15905;SDS011;8051;50.820;4.884;2024-02-28T12:14:36;33.20;;;30.53;;
15905;SDS011;8051;50.820;4.884;2024-02-28T12:17:04;34.03;;;31.13;;
15905;SDS011;8051;50.820;4.884;2024-02-28T12:19:31;33.87;;;31.13;;
15905;SDS011;8051;50.820;4.884;2024-02-28T12:22:02;32.80;;;30.30;;
15905;SDS011;8051;50.820;4.884;2024-02-28T12:24:30;31.77;;;29.03;;
15905;SDS011;8051;50.820;4.884;2024-02-28T12:26:58;32.80;;;30.00;;
15905;SDS011;8051;50.820;4.884;2024-02-28T12:29:25;29.90;;;27.70;;
15905;SDS011;8051;50.820;4.884;2024-02-28T12:31:52;31.23;;;28.73;;
15905;SDS011;8051;50.820;4.884;2024-02-28T12:34:20;32.60;;;29.90;;
15905;SDS011;8051;50.820;4.884;2024-02-28T12:36:47;32.57;;;30.00;;
15905;SDS011;8051;50.820;4.884;2024-02-28T12:39:16;32.40;;;29.97;;
15905;SDS011;8051;50.820;4.884;2024-02-28T12:41:44;31.77;;;29.43;;
15905;SDS011;8051;50.820;4.884;2024-02-28T12:44:11;32.33;;;29.80;;
15905;SDS011;8051;50.820;4.884;2024-02-28T12:46:39;31.17;;;28.77;;
15905;SDS011;8051;50.820;4.884;2024-02-28T12:49:06;31.60;;;29.10;;
15905;SDS011;8051;50.820;4.884;2024-02-28T12:51:38;31.30;;;28.80;;
15905;SDS011;8051;50.820;4.884;2024-02-28T12:54:07;31.63;;;29.20;;
15905;SDS011;8051;50.820;4.884;2024-02-28T12:56:37;30.77;;;28.33;;
15905;SDS011;8051;50.820;4.884;2024-02-28T12:59:05;29.93;;;27.63;;
15905;SDS011;8051;50.820;4.884;2024-02-28T13:01:33;31.87;;;29.53;;
15905;SDS011;8051;50.820;4.884;2024-02-28T13:04:00;31.43;;;29.13;;
15905;SDS011;8051;50.820;4.884;2024-02-28T13:06:28;32.60;;;30.10;;
15905;SDS011;8051;50.820;4.884;2024-02-28T13:08:56;31.73;;;29.37;;
15905;SDS011;8051;50.820;4.884;2024-02-28T13:11:23;33.10;;;30.73;;
15905;SDS011;8051;50.820;4.884;2024-02-28T13:13:52;32.70;;;30.40;;
15905;SDS011;8051;50.820;4.884;2024-02-28T13:16:20;32.23;;;29.70;;
15905;SDS011;8051;50.820;4.884;2024-02-28T13:18:48;32.30;;;29.90;;
15905;SDS011;8051;50.820;4.884;2024-02-28T13:21:16;32.87;;;30.30;;
15905;SDS011;8051;50.820;4.884;2024-02-28T13:23:43;32.40;;;29.70;;
15905;SDS011;8051;50.820;4.884;2024-02-28T13:26:11;32.77;;;30.13;;
15905;SDS011;8051;50.820;4.884;2024-02-28T13:28:43;32.97;;;30.23;;
15905;SDS011;8051;50.820;4.884;2024-02-28T13:31:12;31.03;;;28.83;;
15905;SDS011;8051;50.820;4.884;2024-02-28T13:33:40;33.20;;;30.37;;
15905;SDS011;8051;50.820;4.884;2024-02-28T13:36:07;32.37;;;29.97;;
15905;SDS011;8051;50.820;4.884;2024-02-28T13:38:35;33.50;;;30.90;;
15905;SDS011;8051;50.820;4.884;2024-02-28T13:41:03;31.50;;;29.10;;
15905;SDS011;8051;50.820;4.884;2024-02-28T13:43:31;30.57;;;28.27;;
15905;SDS011;8051;50.820;4.884;2024-02-28T13:45:58;32.17;;;29.67;;
15905;SDS011;8051;50.820;4.884;2024-02-28T13:48:28;32.67;;;30.17;;
15905;SDS011;8051;50.820;4.884;2024-02-28T13:50:56;32.13;;;29.83;;
15905;SDS011;8051;50.820;4.884;2024-02-28T13:53:24;32.50;;;30.03;;
15905;SDS011;8051;50.820;4.884;2024-02-28T13:55:52;31.10;;;28.90;;
15905;SDS011;8051;50.820;4.884;2024-02-28T13:58:20;31.33;;;29.13;;
15905;SDS011;8051;50.820;4.884;2024-02-28T14:00:47;31.60;;;29.30;;
15905;SDS011;8051;50.820;4.884;2024-02-28T14:03:15;31.30;;;28.97;;
15905;SDS011;8051;50.820;4.884;2024-02-28T14:05:44;31.00;;;28.83;;
15905;SDS011;8051;50.820;4.884;2024-02-28T14:08:11;30.13;;;27.93;;
15905;SDS011;8051;50.820;4.884;2024-02-28T14:10:39;29.30;;;27.30;;
15905;SDS011;8051;50.820;4.884;2024-02-28T14:13:06;31.97;;;29.57;;
15905;SDS011;8051;50.820;4.884;2024-02-28T14:15:33;32.00;;;29.60;;
15905;SDS011;8051;50.820;4.884;2024-02-28T14:18:01;31.00;;;28.90;;
15905;SDS011;8051;50.820;4.884;2024-02-28T14:20:29;31.27;;;28.97;;
15905;SDS011;8051;50.820;4.884;2024-02-28T14:22:58;31.27;;;29.07;;
15905;SDS011;8051;50.820;4.884;2024-02-28T14:25:26;31.07;;;28.87;;
15905;SDS011;8051;50.820;4.884;2024-02-28T14:27:55;30.00;;;27.90;;
15905;SDS011;8051;50.820;4.884;2024-02-28T14:30:22;30.27;;;28.17;;
15905;SDS011;8051;50.820;4.884;2024-02-28T14:32:50;31.03;;;28.93;;
15905;SDS011;8051;50.820;4.884;2024-02-28T14:35:18;32.90;;;30.30;;
15905;SDS011;8051;50.820;4.884;2024-02-28T14:37:46;32.77;;;30.27;;